Time;durP1;ratioP1;P1;durP2;ratioP2;P2;SDS_P1;SDS_P2;PMS_P1;PMS_P2;Temp;Humidity;BMP_temperature;BMP_pressure;BME280_temperature;BME280_humidity;BME280_pressure;Samples;Min_cycle;Max_cycle;Signal;HPM_P1;HPM_P2
2021/12/24 00:00:19;;;;;;;7.20;4.13;;;10.00;79.20;;;;;;5031176;28;20463;-73
2021/12/24 00:02:44;;;;;;;7.33;4.07;;;10.00;79.00;;;;;;5012931;28;20444;-74
2021/12/24 00:05:11;;;;;;;5.00;3.67;;;10.00;79.00;;;;;;5030692;28;20423;-73
2021/12/24 00:07:37;;;;;;;8.77;3.90;;;10.00;79.00;;;;;;5029939;28;20189;-72
2021/12/24 00:10:06;;;;;;;8.27;5.10;;;10.10;79.00;;;;;;5031041;28;20469;-71
2021/12/24 00:12:34;;;;;;;7.83;4.27;;;10.10;78.60;;;;;;5031912;28;20425;-72
2021/12/24 00:15:09;;;;;;;7.57;4.57;;;10.10;78.60;;;;;;5030591;28;20496;-72
2021/12/24 00:17:37;;;;;;;5.93;3.97;;;10.10;78.70;;;;;;5031769;28;20506;-72
2021/12/24 00:35:04;;;;;;;5.70;3.97;;;10.10;78.60;;;;;;4981776;28;20414;-71
2021/12/24 00:36:55;;;;;;;5.70;3.50;;;10.30;78.30;;;;;;5021695;28;20419;-70
2021/12/24 00:39:21;;;;;;;8.00;4.10;;;10.20;78.10;;;;;;5029942;28;20423;-72
2021/12/24 00:41:47;;;;;;;7.37;4.33;;;10.10;78.30;;;;;;5029943;28;20202;-71
2021/12/24 00:44:12;;;;;;;6.23;4.23;;;10.10;78.40;;;;;;5030172;28;20620;-72
2021/12/24 00:46:38;;;;;;;5.93;3.47;;;10.10;78.60;;;;;;5029334;28;20652;-71
2021/12/24 00:49:04;;;;;;;5.67;3.70;;;10.00;78.60;;;;;;5030000;28;20276;-72
2021/12/24 00:51:43;;;;;;;5.77;3.63;;;10.00;79.00;;;;;;5030458;28;20319;-73
2021/12/24 00:56:54;;;;;;;8.17;4.30;;;10.00;79.20;;;;;;5023174;28;20510;-72
2021/12/24 00:59:20;;;;;;;6.07;3.40;;;10.00;79.20;;;;;;5029350;28;20427;-71
2021/12/24 01:01:45;;;;;;;5.53;3.63;;;10.00;79.30;;;;;;5032048;28;20279;-71
2021/12/24 01:04:11;;;;;;;4.57;3.60;;;10.00;79.20;;;;;;5035220;28;20201;-72
2021/12/24 01:06:37;;;;;;;6.10;3.77;;;10.00;79.20;;;;;;5032203;28;20181;-71
2021/12/24 01:09:04;;;;;;;4.53;3.50;;;10.10;79.00;;;;;;5020106;28;20563;-72
2021/12/24 01:11:30;;;;;;;4.60;3.50;;;10.10;79.00;;;;;;5029463;28;21143;-72
2021/12/24 01:13:58;;;;;;;5.23;3.73;;;10.10;79.20;;;;;;5029445;28;20467;-72
2021/12/24 01:16:52;;;;;;;5.90;3.43;;;10.10;79.30;;;;;;5028806;28;20507;-72
2021/12/24 01:19:15;;;;;;;8.47;4.13;;;10.10;79.20;;;;;;5023044;28;20914;-71
2021/12/24 01:24:54;;;;;;;8.20;4.60;;;10.20;78.60;;;;;;4971216;28;20489;-72
2021/12/24 01:37:51;;;;;;;9.73;5.60;;;10.20;78.60;;;;;;4998226;28;21351;-71
2021/12/24 01:38:34;;;;;;;8.97;3.73;;;10.00;79.30;;;;;;5029216;28;20455;-70
2021/12/24 01:43:27;;;;;;;4.17;3.23;;;9.90;79.90;;;;;;5029608;28;20481;-71
2021/12/24 01:45:55;;;;;;;7.27;4.70;;;9.90;80.00;;;;;;5031408;28;20503;-70
2021/12/24 01:48:22;;;;;;;6.27;3.83;;;9.90;80.00;;;;;;5029664;28;20519;-71
2021/12/24 01:50:50;;;;;;;6.00;3.73;;;9.90;80.00;;;;;;5028746;28;20444;-70
2021/12/24 01:53:21;;;;;;;7.30;4.20;;;9.90;79.90;;;;;;5029192;28;20489;-71
2021/12/24 01:55:50;;;;;;;5.77;3.50;;;9.90;80.00;;;;;;5010461;28;21094;-72
2021/12/24 01:58:24;;;;;;;5.87;3.73;;;9.90;80.00;;;;;;5028884;28;20443;-71
2021/12/24 02:00:52;;;;;;;6.97;3.83;;;9.80;80.30;;;;;;5010996;28;20440;-71
2021/12/24 02:03:18;;;;;;;8.77;3.87;;;9.80;80.30;;;;;;5031119;28;20451;-71
2021/12/24 02:05:46;;;;;;;6.80;3.77;;;9.80;80.50;;;;;;5028263;28;20428;-71
2021/12/24 02:08:13;;;;;;;13.23;4.47;;;9.70;80.80;;;;;;5030814;28;20430;-72
2021/12/24 02:10:39;;;;;;;5.40;3.73;;;9.70;81.10;;;;;;5032902;28;20447;-71
2021/12/24 02:13:05;;;;;;;6.93;3.90;;;9.60;81.40;;;;;;5032866;28;20471;-71
2021/12/24 02:29:07;;;;;;;6.77;3.40;;;9.60;81.50;;;;;;5032263;28;20426;-71
2021/12/24 02:31:33;;;;;;;6.53;3.30;;;9.60;81.40;;;;;;5029749;28;20447;-71
2021/12/24 02:33:58;;;;;;;6.57;3.67;;;9.70;81.10;;;;;;5032325;28;20467;-69
2021/12/24 02:36:24;;;;;;;5.80;3.00;;;9.70;80.80;;;;;;5031817;28;20965;-72
2021/12/24 02:38:51;;;;;;;4.80;3.30;;;9.80;80.30;;;;;;5032229;28;20420;-71
2021/12/24 02:41:17;;;;;;;5.83;3.57;;;9.90;80.00;;;;;;5032429;28;20471;-71
2021/12/24 02:43:44;;;;;;;5.07;3.30;;;10.00;79.90;;;;;;5032239;28;20501;-70
2021/12/24 02:46:15;;;;;;;6.70;3.43;;;10.00;79.60;;;;;;5031669;28;20433;-70
2021/12/24 02:54:10;;;;;;;4.27;3.43;;;10.00;79.20;;;;;;5031992;28;20549;-69
2021/12/24 02:56:38;;;;;;;6.07;3.60;;;10.00;79.20;;;;;;5031415;28;20492;-71
2021/12/24 02:59:14;;;;;;;8.57;3.73;;;10.00;79.30;;;;;;5013654;28;20213;-69
2021/12/24 03:01:44;;;;;;;5.80;3.67;;;10.00;79.30;;;;;;5032279;28;20452;-71
2021/12/24 03:04:11;;;;;;;6.43;3.53;;;9.90;79.60;;;;;;5032241;28;20446;-70
2021/12/24 03:06:40;;;;;;;5.13;3.37;;;9.90;79.70;;;;;;5031712;28;20424;-71
2021/12/24 03:09:09;;;;;;;6.00;3.57;;;9.80;79.90;;;;;;5014308;28;21111;-70
2021/12/24 03:11:35;;;;;;;8.20;3.60;;;9.90;79.70;;;;;;5032656;28;20976;-70
2021/12/24 03:14:03;;;;;;;6.17;3.50;;;9.80;79.90;;;;;;5032456;28;20478;-71
2021/12/24 03:16:30;;;;;;;4.07;3.30;;;9.80;79.70;;;;;;5033021;28;20454;-72
2021/12/24 03:18:56;;;;;;;11.33;3.43;;;9.80;79.90;;;;;;5032308;28;20416;-72
2021/12/24 03:21:31;;;;;;;6.20;3.60;;;9.70;80.00;;;;;;5028042;28;20463;-70
2021/12/24 03:26:39;;;;;;;8.93;4.07;;;9.70;80.50;;;;;;5027002;28;20424;-68
2021/12/24 03:29:11;;;;;;;6.40;3.73;;;9.70;80.60;;;;;;5031171;28;20423;-70
2021/12/24 03:31:39;;;;;;;6.40;3.30;;;9.70;80.30;;;;;;5029024;28;20490;-71
2021/12/24 03:34:07;;;;;;;4.03;3.23;;;9.70;80.50;;;;;;5031019;28;20471;-71
2021/12/24 03:36:33;;;;;;;4.97;3.37;;;9.60;80.80;;;;;;5030257;28;20478;-71
2021/12/24 03:38:58;;;;;;;5.37;3.03;;;9.60;80.80;;;;;;5030725;28;20424;-70
2021/12/24 03:41:25;;;;;;;6.20;3.50;;;9.60;80.90;;;;;;5013218;28;20209;-69
2021/12/24 03:43:51;;;;;;;4.60;3.30;;;9.60;80.60;;;;;;5013204;28;20522;-71
2021/12/24 03:46:21;;;;;;;3.77;2.90;;;9.70;80.80;;;;;;5029984;28;20526;-70
2021/12/24 03:49:00;;;;;;;5.10;3.50;;;9.70;80.50;;;;;;5030814;28;20481;-70
2021/12/24 03:57:11;;;;;;;4.40;2.90;;;9.80;80.60;;;;;;4950761;29;20502;-71
2021/12/24 03:59:37;;;;;;;7.73;3.60;;;9.80;80.90;;;;;;4940379;29;20435;-70
2021/12/24 04:02:03;;;;;;;5.63;3.13;;;9.80;80.80;;;;;;4957983;28;20275;-70
2021/12/24 04:04:29;;;;;;;6.53;3.60;;;9.90;80.60;;;;;;4955860;29;20702;-70
2021/12/24 04:06:55;;;;;;;6.20;2.90;;;9.90;80.60;;;;;;4950825;28;20443;-73
2021/12/24 04:09:24;;;;;;;5.57;3.20;;;9.90;80.60;;;;;;4949989;29;20550;-71
2021/12/24 04:11:49;;;;;;;5.60;3.20;;;9.90;80.50;;;;;;4950033;28;20443;-71
2021/12/24 04:14:15;;;;;;;5.30;3.13;;;9.90;80.80;;;;;;4946969;29;20479;-71
2021/12/24 04:16:41;;;;;;;4.43;3.20;;;9.90;80.90;;;;;;4947545;29;20203;-71
2021/12/24 04:27:07;;;;;;;4.50;2.83;;;9.70;81.20;;;;;;4949286;29;20538;-71
2021/12/24 04:29:32;;;;;;;5.10;3.00;;;9.70;81.70;;;;;;5026400;28;20531;-72
2021/12/24 04:32:11;;;;;;;6.97;3.93;;;9.60;81.90;;;;;;5039080;28;20667;-71
2021/12/24 04:34:39;;;;;;;5.87;3.17;;;9.50;82.10;;;;;;5030170;28;20323;-71
2021/12/24 05:03:42;;;;;;;8.57;3.50;;;9.80;82.70;;;;;;5025949;28;20450;-70
2021/12/24 05:06:28;;;;;;;5.60;3.40;;;10.00;82.40;;;;;;5031951;28;20427;-72
2021/12/24 05:08:57;;;;;;;6.90;3.57;;;10.10;82.20;;;;;;5025031;28;20424;-71
2021/12/24 05:11:24;;;;;;;6.27;3.10;;;10.40;81.20;;;;;;5032492;28;20440;-71
2021/12/24 05:13:51;;;;;;;6.07;3.50;;;10.60;80.50;;;;;;5031742;28;20547;-71
2021/12/24 05:16:23;;;;;;;3.30;3.07;;;10.60;79.90;;;;;;5023392;28;20514;-71
2021/12/24 05:24:02;;;;;;;7.70;4.43;;;10.80;78.90;;;;;;5024432;28;20522;-71
2021/12/24 05:26:29;;;;;;;6.17;3.37;;;10.80;78.40;;;;;;5030240;28;20870;-72
2021/12/24 05:28:56;;;;;;;4.40;3.00;;;10.80;78.60;;;;;;5031129;28;20477;-71
2021/12/24 05:31:22;;;;;;;5.50;3.50;;;10.70;78.60;;;;;;5030544;28;20946;-72
2021/12/24 05:33:48;;;;;;;6.77;3.50;;;10.70;78.60;;;;;;5029833;28;20471;-71
2021/12/24 05:36:14;;;;;;;4.57;3.00;;;10.70;78.70;;;;;;5029483;28;20478;-70
2021/12/24 05:38:40;;;;;;;5.93;3.20;;;10.60;79.00;;;;;;5029693;28;20189;-70
2021/12/24 05:41:06;;;;;;;4.83;3.60;;;10.60;79.00;;;;;;5028830;28;20206;-71
2021/12/24 05:43:31;;;;;;;6.03;3.63;;;10.60;79.00;;;;;;5030667;28;20430;-71
2021/12/24 05:45:57;;;;;;;4.77;3.90;;;10.60;79.00;;;;;;5030986;28;20192;-72
2021/12/24 05:48:23;;;;;;;4.83;3.40;;;10.60;79.30;;;;;;5029235;28;20185;-71
2021/12/24 05:50:49;;;;;;;5.53;3.40;;;10.60;79.50;;;;;;5011361;28;20205;-71
2021/12/24 05:53:15;;;;;;;6.90;3.43;;;10.50;79.60;;;;;;5029486;28;20411;-71
2021/12/24 05:55:40;;;;;;;6.10;3.60;;;10.50;79.70;;;;;;5028306;28;20189;-71
2021/12/24 05:58:08;;;;;;;7.83;4.10;;;10.50;79.60;;;;;;5038838;28;20197;-71
2021/12/24 06:00:39;;;;;;;4.50;3.10;;;10.50;79.70;;;;;;5029836;28;20205;-71
2021/12/24 06:03:08;;;;;;;5.90;3.27;;;10.60;80.00;;;;;;5030520;28;20443;-73
2021/12/24 06:05:34;;;;;;;5.40;3.50;;;10.50;80.30;;;;;;5029054;28;20487;-72
2021/12/24 06:08:00;;;;;;;5.50;3.13;;;10.50;80.60;;;;;;5027832;28;20478;-72
2021/12/24 06:10:26;;;;;;;6.60;3.53;;;10.50;80.80;;;;;;5030360;28;20497;-71
2021/12/24 06:12:52;;;;;;;5.90;3.93;;;10.50;80.50;;;;;;5030094;28;20790;-71
2021/12/24 06:15:23;;;;;;;5.30;3.53;;;10.50;80.60;;;;;;5030042;28;20508;-71
2021/12/24 06:17:52;;;;;;;7.03;3.93;;;10.50;80.80;;;;;;5029950;28;20173;-71
2021/12/24 06:20:18;;;;;;;7.57;4.00;;;10.60;80.80;;;;;;5030579;28;20519;-71
2021/12/24 06:22:44;;;;;;;7.07;3.70;;;10.60;80.60;;;;;;5029969;28;20431;-72
2021/12/24 06:25:10;;;;;;;5.77;3.90;;;10.60;80.60;;;;;;5028368;28;20415;-71
2021/12/24 06:27:36;;;;;;;4.40;3.50;;;10.60;80.60;;;;;;5028552;28;20917;-71
2021/12/24 06:30:05;;;;;;;5.13;3.80;;;10.60;80.60;;;;;;5029003;28;20428;-71
2021/12/24 06:32:31;;;;;;;5.47;3.93;;;10.60;80.60;;;;;;5029147;28;20487;-71
2021/12/24 06:34:56;;;;;;;7.27;4.03;;;10.60;80.60;;;;;;5027737;28;20507;-71
2021/12/24 06:37:22;;;;;;;6.40;3.77;;;10.60;80.80;;;;;;5022106;28;20861;-71
2021/12/24 06:39:48;;;;;;;5.07;3.60;;;10.60;80.80;;;;;;5023818;28;20723;-71
2021/12/24 06:42:14;;;;;;;8.20;3.83;;;10.60;80.80;;;;;;5029134;28;20274;-70
2021/12/24 06:44:40;;;;;;;7.20;4.13;;;10.60;80.60;;;;;;5028870;28;20556;-73
2021/12/24 06:47:06;;;;;;;3.83;3.40;;;10.70;80.50;;;;;;5027862;28;20497;-72
2021/12/24 06:49:32;;;;;;;9.70;4.20;;;10.60;80.60;;;;;;5029021;28;20250;-72
2021/12/24 06:51:58;;;;;;;8.63;4.20;;;10.60;80.60;;;;;;5028597;28;20944;-71
2021/12/24 06:54:24;;;;;;;5.63;3.77;;;10.60;80.60;;;;;;5013538;28;20471;-71
2021/12/24 06:56:50;;;;;;;10.17;4.77;;;10.70;80.20;;;;;;5031734;28;20412;-70
2021/12/24 06:59:16;;;;;;;6.43;4.20;;;10.60;80.20;;;;;;5031373;28;20475;-71
2021/12/24 07:01:42;;;;;;;6.50;4.37;;;10.60;80.30;;;;;;5032036;28;20574;-71
2021/12/24 07:04:09;;;;;;;7.90;4.13;;;10.50;80.30;;;;;;5026072;28;20807;-72
2021/12/24 07:06:39;;;;;;;9.00;4.30;;;10.50;81.40;;;;;;5030445;28;20463;-72
2021/12/24 07:09:04;;;;;;;6.00;3.90;;;10.50;82.50;;;;;;5032271;28;20818;-72
2021/12/24 07:11:30;;;;;;;6.17;3.90;;;10.40;83.30;;;;;;5032292;28;20546;-71
2021/12/24 07:13:56;;;;;;;8.03;3.97;;;10.40;83.40;;;;;;5042573;28;20672;-72
2021/12/24 07:16:22;;;;;;;6.20;3.93;;;10.40;83.00;;;;;;5031469;28;20186;-72
2021/12/24 07:18:47;;;;;;;6.50;4.00;;;10.40;82.70;;;;;;5031364;28;20190;-72
2021/12/24 07:21:13;;;;;;;9.57;4.50;;;10.40;82.50;;;;;;5032065;28;20282;-70
2021/12/24 07:23:39;;;;;;;6.50;3.57;;;10.40;83.00;;;;;;5032244;28;20195;-70
2021/12/24 07:26:05;;;;;;;6.40;4.20;;;10.30;83.70;;;;;;5031763;28;20455;-72
2021/12/24 07:28:31;;;;;;;8.73;4.97;;;10.30;84.10;;;;;;5031480;28;20254;-70
2021/12/24 07:30:57;;;;;;;6.33;4.30;;;10.20;84.70;;;;;;5032090;28;20213;-73
2021/12/24 07:33:22;;;;;;;6.10;4.23;;;10.10;85.70;;;;;;5032173;28;20643;-71
2021/12/24 07:35:48;;;;;;;7.40;4.53;;;10.10;85.70;;;;;;5032461;28;20522;-72
2021/12/24 07:38:14;;;;;;;6.30;4.00;;;10.10;85.70;;;;;;5026751;28;20570;-71
2021/12/24 07:40:45;;;;;;;6.40;3.87;;;10.00;85.60;;;;;;5031651;28;20208;-72
2021/12/24 07:43:10;;;;;;;9.00;4.17;;;10.10;85.20;;;;;;5032057;28;20485;-71
2021/12/24 07:45:38;;;;;;;7.07;4.00;;;10.10;84.60;;;;;;5029169;28;20454;-71
2021/12/24 07:48:11;;;;;;;6.63;3.57;;;10.10;84.30;;;;;;5035364;28;20185;-72
2021/12/24 07:53:06;;;;;;;10.53;4.27;;;10.10;84.00;;;;;;5032239;28;20424;-72
2021/12/24 07:55:32;;;;;;;8.40;4.27;;;10.10;84.00;;;;;;5030900;28;20535;-72
2021/12/24 07:57:58;;;;;;;6.00;4.13;;;10.10;84.30;;;;;;5013897;28;20995;-72
2021/12/24 08:00:27;;;;;;;9.23;4.17;;;10.10;84.40;;;;;;5031860;28;20205;-73
2021/12/24 08:02:55;;;;;;;5.00;4.10;;;10.00;84.40;;;;;;5032130;28;20456;-70
2021/12/24 08:05:23;;;;;;;5.80;4.07;;;10.00;84.40;;;;;;5032549;28;20423;-71
2021/12/24 08:07:50;;;;;;;6.03;4.13;;;10.00;84.40;;;;;;5032160;28;20894;-71
2021/12/24 08:10:16;;;;;;;8.40;4.73;;;10.10;84.40;;;;;;5032303;28;20416;-71
2021/12/24 08:12:42;;;;;;;4.83;3.53;;;10.10;84.30;;;;;;5032505;28;20482;-72
2021/12/24 08:15:08;;;;;;;7.17;4.50;;;10.10;84.30;;;;;;5027267;28;20293;-71
2021/12/24 08:17:35;;;;;;;5.40;3.90;;;10.10;84.40;;;;;;5028754;28;20530;-70
2021/12/24 08:20:02;;;;;;;7.60;4.30;;;10.10;84.30;;;;;;5026247;28;20419;-70
2021/12/24 08:22:27;;;;;;;7.03;4.17;;;10.10;84.30;;;;;;5013541;28;20515;-72
2021/12/24 08:24:53;;;;;;;6.80;4.00;;;10.10;84.10;;;;;;5029605;28;20507;-71
2021/12/24 08:27:21;;;;;;;6.30;4.17;;;10.10;84.30;;;;;;5031452;28;20188;-70
2021/12/24 08:29:47;;;;;;;5.90;4.23;;;10.10;84.30;;;;;;5031313;28;20258;-71
2021/12/24 08:32:13;;;;;;;6.60;4.10;;;10.10;84.40;;;;;;5037997;28;20863;-71
2021/12/24 08:34:39;;;;;;;8.50;4.33;;;10.10;84.60;;;;;;5031994;28;20556;-71
2021/12/24 08:37:05;;;;;;;11.30;3.40;;;10.10;84.70;;;;;;5031995;28;20185;-71
2021/12/24 08:39:32;;;;;;;5.70;4.20;;;10.10;84.70;;;;;;5031430;28;20427;-71
2021/12/24 08:41:59;;;;;;;7.73;4.00;;;10.10;84.70;;;;;;5031306;28;20432;-71
2021/12/24 08:44:29;;;;;;;7.10;4.03;;;10.10;85.00;;;;;;5030247;28;20490;-70
2021/12/24 08:46:55;;;;;;;4.53;3.60;;;10.10;85.00;;;;;;5022380;28;20786;-71
2021/12/24 08:49:23;;;;;;;8.40;4.40;;;10.10;85.00;;;;;;5030742;28;20420;-72
2021/12/24 08:51:50;;;;;;;6.77;4.20;;;10.10;85.20;;;;;;5030846;28;20463;-72
2021/12/24 08:54:16;;;;;;;5.77;3.33;;;10.20;84.90;;;;;;5030498;28;20858;-72
2021/12/24 08:56:42;;;;;;;6.00;3.90;;;10.20;84.70;;;;;;5027672;28;20494;-71
2021/12/24 08:59:08;;;;;;;7.27;3.97;;;10.20;84.90;;;;;;5030015;28;20424;-72
2021/12/24 09:01:34;;;;;;;6.90;4.03;;;10.20;84.90;;;;;;5027229;28;20221;-71
2021/12/24 09:04:00;;;;;;;5.10;4.10;;;10.20;84.90;;;;;;5024217;28;20202;-72
2021/12/24 09:06:26;;;;;;;7.10;4.20;;;10.20;85.60;;;;;;5029869;28;20934;-71
2021/12/24 09:08:52;;;;;;;5.50;3.60;;;10.10;86.30;;;;;;5030285;28;20474;-71
2021/12/24 09:11:18;;;;;;;9.43;4.00;;;10.10;86.90;;;;;;5025768;28;20750;-70
2021/12/24 09:13:45;;;;;;;6.37;4.20;;;10.00;87.00;;;;;;5031773;28;20624;-72
2021/12/24 09:16:11;;;;;;;8.13;3.83;;;10.00;87.30;;;;;;5023253;28;20423;-72
2021/12/24 09:18:39;;;;;;;5.93;3.60;;;10.00;87.30;;;;;;5021936;28;20431;-71
2021/12/24 09:21:12;;;;;;;4.80;3.93;;;10.10;87.10;;;;;;5032284;28;20502;-72
2021/12/24 09:23:38;;;;;;;6.37;4.07;;;10.00;86.90;;;;;;5012398;28;20855;-71
2021/12/24 09:26:03;;;;;;;7.13;4.00;;;10.00;87.10;;;;;;5028439;28;20447;-72
2021/12/24 09:28:29;;;;;;;6.23;3.87;;;10.00;87.30;;;;;;5026277;28;20194;-72
2021/12/24 09:30:55;;;;;;;12.23;4.17;;;10.00;87.40;;;;;;5029821;28;20217;-70
2021/12/24 09:33:21;;;;;;;6.00;3.80;;;10.00;87.60;;;;;;5029349;28;20208;-71
2021/12/24 09:35:46;;;;;;;7.73;3.97;;;10.00;87.80;;;;;;5029127;28;20560;-71
2021/12/24 09:38:12;;;;;;;6.90;4.23;;;9.90;88.90;;;;;;5022007;28;20181;-70
2021/12/24 09:40:38;;;;;;;7.27;4.67;;;9.80;89.60;;;;;;5025605;28;20436;-71
2021/12/24 09:43:04;;;;;;;8.00;4.10;;;9.80;90.10;;;;;;5026068;28;20515;-71
2021/12/24 09:45:30;;;;;;;7.60;3.83;;;9.70;90.30;;;;;;5017357;28;20200;-71
2021/12/24 09:47:55;;;;;;;9.13;3.90;;;9.70;90.50;;;;;;5029560;28;20181;-71
2021/12/24 09:50:24;;;;;;;7.13;4.20;;;9.70;90.70;;;;;;5030325;28;20443;-70
2021/12/24 09:52:50;;;;;;;5.47;3.70;;;9.70;90.70;;;;;;5032908;28;20264;-71
2021/12/24 09:55:23;;;;;;;6.87;4.30;;;9.70;90.90;;;;;;5032538;28;20464;-71
2021/12/24 09:57:49;;;;;;;5.13;4.00;;;9.70;91.00;;;;;;5016271;28;20510;-73
2021/12/24 10:00:18;;;;;;;6.00;3.90;;;9.70;91.00;;;;;;5035226;28;20921;-71
2021/12/24 10:02:48;;;;;;;7.00;3.70;;;9.70;91.20;;;;;;5028805;28;20448;-71
2021/12/24 10:05:25;;;;;;;6.87;3.93;;;9.60;91.20;;;;;;5032666;28;20495;-71
2021/12/24 10:07:57;;;;;;;6.20;3.80;;;9.60;91.40;;;;;;5021542;28;20506;-70
2021/12/24 10:10:28;;;;;;;8.20;4.77;;;9.70;91.40;;;;;;5029588;28;20439;-71
2021/12/24 10:12:54;;;;;;;4.30;3.43;;;9.70;91.20;;;;;;5021646;28;20502;-71
2021/12/24 10:15:20;;;;;;;8.77;4.60;;;9.70;91.20;;;;;;5029000;28;21075;-72
2021/12/24 10:17:46;;;;;;;11.00;4.60;;;9.70;91.20;;;;;;5028514;28;20463;-72
2021/12/24 10:20:20;;;;;;;7.40;4.10;;;9.70;91.20;;;;;;5007920;28;20479;-71
2021/12/24 10:22:54;;;;;;;8.40;4.37;;;9.70;91.10;;;;;;5028650;28;20187;-71
2021/12/24 10:25:29;;;;;;;7.93;4.77;;;9.70;91.20;;;;;;5029435;28;20424;-71
2021/12/24 10:27:55;;;;;;;7.37;4.33;;;9.80;91.10;;;;;;5030334;28;20415;-72
2021/12/24 10:30:31;;;;;;;6.77;4.53;;;9.80;91.10;;;;;;5034856;28;21005;-70
2021/12/24 10:33:06;;;;;;;10.63;4.30;;;9.80;90.90;;;;;;5033323;28;20197;-71
2021/12/24 10:35:32;;;;;;;6.97;4.27;;;9.80;90.90;;;;;;5032903;28;20546;-71
2021/12/24 10:38:15;;;;;;;9.47;4.13;;;9.80;90.80;;;;;;5032382;28;20412;-70
2021/12/24 10:41:07;;;;;;;7.10;3.90;;;9.80;91.00;;;;;;5034157;28;20228;-71
2021/12/24 10:43:35;;;;;;;6.10;3.27;;;9.80;90.80;;;;;;5034041;28;20914;-70
2021/12/24 10:46:20;;;;;;;5.20;3.80;;;9.80;90.70;;;;;;5033944;28;20513;-72
2021/12/24 10:49:13;;;;;;;5.20;3.80;;;9.80;90.60;;;;;;5033884;28;20424;-71
2021/12/24 10:52:12;;;;;;;7.20;3.80;;;9.80;90.50;;;;;;5032956;28;20451;-72
2021/12/24 10:55:00;;;;;;;4.73;3.57;;;9.80;90.80;;;;;;5030712;28;20478;-71
2021/12/24 10:57:46;;;;;;;5.00;3.33;;;9.80;90.70;;;;;;5014195;28;20431;-72
2021/12/24 11:00:21;;;;;;;5.63;3.80;;;9.80;90.60;;;;;;5028247;28;20419;-72
2021/12/24 11:02:56;;;;;;;5.47;3.47;;;9.80;90.70;;;;;;5032515;28;20775;-71
2021/12/24 11:05:32;;;;;;;5.40;3.10;;;9.80;90.70;;;;;;5036658;28;20424;-71
2021/12/24 11:08:00;;;;;;;4.43;3.30;;;9.80;90.60;;;;;;5031968;28;20457;-71
2021/12/24 11:10:29;;;;;;;4.43;2.93;;;9.70;90.70;;;;;;5034392;28;20814;-72
2021/12/24 11:13:09;;;;;;;5.10;3.27;;;9.70;90.80;;;;;;5026975;28;20416;-72
2021/12/24 11:15:40;;;;;;;4.00;3.00;;;9.80;90.70;;;;;;5022941;28;20442;-71
2021/12/24 11:18:19;;;;;;;8.17;3.60;;;9.80;90.70;;;;;;5031215;28;20427;-71
2021/12/24 11:20:53;;;;;;;4.87;3.80;;;9.80;90.60;;;;;;5035183;28;21114;-71
2021/12/24 11:23:21;;;;;;;5.17;3.00;;;9.80;90.70;;;;;;5032535;28;20426;-72
2021/12/24 11:25:53;;;;;;;4.77;3.00;;;9.80;90.60;;;;;;5032123;28;20424;-71
2021/12/24 11:28:20;;;;;;;3.63;2.70;;;9.80;90.60;;;;;;5027160;28;20408;-71
2021/12/24 11:30:54;;;;;;;4.80;2.97;;;9.80;90.80;;;;;;5032890;28;20949;-71
2021/12/24 11:33:26;;;;;;;4.97;2.90;;;9.80;90.70;;;;;;5027106;28;20415;-71
2021/12/24 11:44:52;;;;;;;5.60;3.53;;;9.90;90.60;;;;;;5463860;22;20514;-71
2021/12/24 11:47:18;;;;;;;8.50;4.80;;;9.90;90.60;;;;;;5032255;28;20427;-71
2021/12/24 11:49:44;;;;;;;5.10;3.07;;;9.90;90.80;;;;;;5053353;28;20681;-71
2021/12/24 11:52:10;;;;;;;7.07;4.10;;;9.90;90.60;;;;;;5037511;28;20462;-71
2021/12/24 11:54:35;;;;;;;3.27;2.53;;;10.00;90.40;;;;;;5034541;28;20279;-72
2021/12/24 11:57:01;;;;;;;6.63;3.07;;;9.90;90.50;;;;;;5024023;28;20188;-71
2021/12/24 11:59:38;;;;;;;5.10;3.00;;;10.00;90.70;;;;;;5022781;28;20665;-72
2021/12/24 12:02:04;;;;;;;3.30;2.80;;;10.00;90.60;;;;;;5027725;28;20208;-71
2021/12/24 12:04:29;;;;;;;5.60;2.87;;;10.00;90.40;;;;;;5036903;28;21112;-72
2021/12/24 12:07:17;;;;;;;3.23;2.20;;;10.10;90.30;;;;;;5043185;28;20509;-72
2021/12/24 12:09:44;;;;;;;4.27;2.20;;;10.10;90.60;;;;;;5034139;28;20236;-72
2021/12/24 12:12:14;;;;;;;4.90;2.80;;;10.10;90.30;;;;;;5024932;28;20981;-70
2021/12/24 12:14:41;;;;;;;3.70;2.03;;;10.20;90.20;;;;;;5028472;28;20496;-71
2021/12/24 12:17:08;;;;;;;6.87;2.80;;;10.20;90.30;;;;;;5039546;28;20426;-73
2021/12/24 12:22:21;;;;;;;4.60;2.40;;;10.30;90.00;;;;;;5035405;28;20451;-72
2021/12/24 12:24:58;;;;;;;3.83;2.20;;;10.30;90.00;;;;;;5035969;28;20424;-71
2021/12/24 12:27:31;;;;;;;3.50;2.00;;;10.30;90.10;;;;;;5038723;28;20435;-71
2021/12/24 12:29:57;;;;;;;4.63;2.20;;;10.30;89.90;;;;;;5018973;28;20767;-71
2021/12/24 12:32:24;;;;;;;3.90;1.80;;;10.40;89.70;;;;;;5035922;28;20440;-71
2021/12/24 12:34:57;;;;;;;3.53;2.23;;;10.40;89.20;;;;;;5024750;28;20213;-71
2021/12/24 12:37:40;;;;;;;3.80;1.80;;;10.50;89.00;;;;;;5026375;28;20435;-71
2021/12/24 12:40:18;;;;;;;2.30;1.73;;;10.50;88.70;;;;;;5013225;28;20466;-71
2021/12/24 12:42:55;;;;;;;1.93;1.77;;;10.50;88.90;;;;;;5029503;28;21228;-73
2021/12/24 12:45:43;;;;;;;2.33;1.70;;;10.50;88.40;;;;;;5038380;28;20455;-72
2021/12/24 12:48:22;;;;;;;2.30;1.53;;;10.50;88.40;;;;;;5020857;28;20440;-71
2021/12/24 12:50:58;;;;;;;3.47;1.73;;;10.50;88.60;;;;;;5042184;28;20447;-70
2021/12/24 12:53:37;;;;;;;2.13;1.67;;;10.50;89.00;;;;;;5001103;28;20455;-72
2021/12/24 12:56:14;;;;;;;2.10;1.50;;;10.50;89.30;;;;;;5009503;28;21022;-71
2021/12/24 12:58:42;;;;;;;4.37;1.67;;;10.50;89.30;;;;;;5038985;28;20430;-72
2021/12/24 13:01:13;;;;;;;2.73;1.70;;;10.50;89.00;;;;;;5026518;28;20455;-72
2021/12/24 13:03:57;;;;;;;2.37;1.40;;;10.50;89.20;;;;;;5036053;28;20441;-71
2021/12/24 13:06:38;;;;;;;2.13;1.40;;;10.50;89.20;;;;;;5036018;28;20560;-72
2021/12/24 13:09:07;;;;;;;2.00;1.60;;;10.60;88.90;;;;;;5030252;28;20433;-72
2021/12/24 13:11:44;;;;;;;1.70;1.50;;;10.60;88.60;;;;;;5037719;28;20451;-71
2021/12/24 13:14:11;;;;;;;1.97;1.40;;;10.60;88.40;;;;;;5007728;28;20468;-72
2021/12/24 13:16:49;;;;;;;2.40;1.43;;;10.60;88.40;;;;;;5036250;28;20419;-71
2021/12/24 13:24:54;;;;;;;8.07;4.10;;;10.60;88.00;;;;;;5038736;28;20450;-70
2021/12/24 13:27:24;;;;;;;4.90;2.43;;;10.60;88.10;;;;;;5036678;28;20434;-72
2021/12/24 13:30:04;;;;;;;3.73;2.60;;;10.60;88.30;;;;;;5035493;28;20862;-71
2021/12/24 13:32:30;;;;;;;2.80;2.00;;;10.60;88.10;;;;;;5036564;28;20433;-73
2021/12/24 13:34:56;;;;;;;3.93;3.13;;;10.60;88.30;;;;;;5028474;28;20476;-72
2021/12/24 13:37:22;;;;;;;6.27;4.80;;;10.60;88.40;;;;;;5033461;28;20212;-71
2021/12/24 13:39:51;;;;;;;2.83;2.13;;;10.60;88.60;;;;;;5032624;28;20833;-73
2021/12/24 13:42:18;;;;;;;3.60;1.83;;;10.60;88.60;;;;;;5038850;28;20200;-71
2021/12/24 13:44:48;;;;;;;2.60;1.57;;;10.60;88.40;;;;;;5025330;28;20452;-70
2021/12/24 13:47:28;;;;;;;2.40;2.00;;;10.60;88.60;;;;;;5036018;28;20813;-70
2021/12/24 13:55:30;;;;;;;1.90;1.50;;;10.60;88.40;;;;;;5038240;28;20991;-72
2021/12/24 13:58:06;;;;;;;3.53;2.13;;;10.60;88.70;;;;;;5032858;28;20423;-70
2021/12/24 14:00:36;;;;;;;5.63;3.10;;;10.60;88.90;;;;;;5037494;28;21079;-71
2021/12/24 14:03:05;;;;;;;8.87;3.90;;;10.50;89.20;;;;;;5029882;28;21065;-72
2021/12/24 14:05:31;;;;;;;5.87;3.70;;;10.50;89.60;;;;;;5037689;28;20419;-71
2021/12/24 14:08:24;;;;;;;4.87;3.63;;;10.50;89.90;;;;;;5035226;28;21216;-69
2021/12/24 14:11:18;;;;;;;7.13;3.43;;;10.50;89.90;;;;;;5027737;28;20445;-70
2021/12/24 14:13:50;;;;;;;4.97;3.53;;;10.50;89.90;;;;;;5043657;28;20474;-70
2021/12/24 14:18:56;;;;;;;3.10;1.77;;;10.50;89.60;;;;;;5038800;28;20429;-71
2021/12/24 14:24:34;;;;;;;2.60;2.00;;;10.50;89.20;;;;;;5039724;28;20494;-71
2021/12/24 14:27:01;;;;;;;3.27;1.90;;;10.50;89.20;;;;;;4958936;28;20530;-71
2021/12/24 14:29:34;;;;;;;2.93;1.80;;;10.60;89.00;;;;;;4961004;28;20839;-72
2021/12/24 14:32:12;;;;;;;1.43;1.30;;;10.60;88.70;;;;;;4950261;28;20459;-71
2021/12/24 14:34:50;;;;;;;2.33;1.63;;;10.60;88.90;;;;;;4949854;28;20539;-72
2021/12/24 14:37:29;;;;;;;2.47;1.67;;;10.60;88.90;;;;;;4949404;28;20477;-70
2021/12/24 14:40:06;;;;;;;2.00;1.73;;;10.60;88.90;;;;;;4945561;28;20862;-71
2021/12/24 14:42:47;;;;;;;3.93;1.77;;;10.60;88.70;;;;;;4956469;28;20797;-70
2021/12/24 14:45:34;;;;;;;1.80;1.67;;;10.60;88.40;;;;;;4958707;28;20459;-70
2021/12/24 14:48:12;;;;;;;2.70;1.43;;;10.60;88.40;;;;;;4955789;28;20426;-70
2021/12/24 14:50:51;;;;;;;2.20;1.53;;;10.60;88.40;;;;;;4950390;28;20858;-71
2021/12/24 14:53:19;;;;;;;2.57;1.47;;;10.60;88.10;;;;;;4949000;28;20459;-70
2021/12/24 14:55:57;;;;;;;4.17;1.70;;;10.60;88.30;;;;;;4965836;28;20445;-73
2021/12/24 14:58:43;;;;;;;2.67;1.53;;;10.60;88.40;;;;;;5022310;28;20953;-71
2021/12/24 15:01:11;;;;;;;3.10;1.90;;;10.60;88.30;;;;;;5041915;28;20435;-72
2021/12/24 15:03:41;;;;;;;1.40;1.20;;;10.60;88.30;;;;;;5030180;28;20432;-71
2021/12/24 15:06:16;;;;;;;2.90;1.70;;;10.60;88.90;;;;;;5043719;28;20621;-70
2021/12/24 15:08:41;;;;;;;2.03;1.40;;;10.50;89.70;;;;;;5047043;28;20933;-71
2021/12/24 15:11:18;;;;;;;2.83;1.50;;;10.40;90.10;;;;;;5034358;28;20452;-71